Time;durP1;ratioP1;P1;durP2;ratioP2;P2;SDS_P1;SDS_P2;PMS_P1;PMS_P2;Temp;Humidity;BMP_temperature;BMP_pressure;BME280_temperature;BME280_humidity;BME280_pressure;Samples;Min_cycle;Max_cycle;Signal;HPM_P1;HPM_P2
2023/12/31 00:00:08;;;;;;;18.15;14.15;;;;;;;-145.63;100.00;61273.97;5064248;28;20045;-68
2023/12/31 00:02:33;;;;;;;14.35;12.60;;;;;;;-145.63;100.00;61273.97;5077615;28;20205;-70
2023/12/31 00:04:59;;;;;;;17.33;13.50;;;;;;;-145.63;100.00;61273.97;5075377;28;20033;-68
2023/12/31 00:07:26;;;;;;;16.48;12.60;;;;;;;-145.63;100.00;61273.97;5063956;28;20313;-68
2023/12/31 00:09:52;;;;;;;15.20;12.57;;;;;;;-145.63;100.00;61273.97;5063981;28;20043;-68
2023/12/31 00:12:18;;;;;;;15.38;12.27;;;;;;;-145.63;100.00;61273.97;5057298;28;20092;-69
2023/12/31 00:14:44;;;;;;;17.30;13.65;;;;;;;-145.63;100.00;61273.97;5049060;28;20249;-68
2023/12/31 00:17:09;;;;;;;21.52;14.80;;;;;;;-145.63;100.00;61273.97;5053736;28;20024;-69
2023/12/31 00:19:35;;;;;;;19.77;14.90;;;;;;;-145.63;100.00;61273.97;5058567;28;20034;-67
2023/12/31 00:22:01;;;;;;;18.00;13.45;;;;;;;-145.63;100.00;61273.97;5044159;28;20076;-67
2023/12/31 00:24:26;;;;;;;17.50;13.20;;;;;;;-145.63;100.00;61273.97;5063842;28;20197;-69
2023/12/31 00:26:52;;;;;;;15.55;13.40;;;;;;;-145.63;100.00;61273.97;5047786;28;20044;-69
2023/12/31 00:29:18;;;;;;;18.17;13.98;;;;;;;-145.63;100.00;61273.97;5054537;28;20297;-68
2023/12/31 00:31:43;;;;;;;20.48;15.35;;;;;;;-145.63;100.00;61273.97;5057222;28;20032;-68
2023/12/31 00:34:10;;;;;;;18.30;13.27;;;;;;;-145.63;100.00;61273.97;5046380;28;20038;-68
2023/12/31 00:36:36;;;;;;;16.38;13.52;;;;;;;-145.63;100.00;61273.97;5083437;28;20039;-68
2023/12/31 00:39:01;;;;;;;18.30;14.00;;;;;;;-145.63;100.00;61273.97;5066430;28;20036;-68
2023/12/31 00:41:27;;;;;;;12.43;10.05;;;;;;;-145.63;100.00;61273.97;5051165;28;20029;-68
2023/12/31 00:43:52;;;;;;;11.30;9.32;;;;;;;-145.63;100.00;61273.97;5050835;28;20051;-67
2023/12/31 00:46:18;;;;;;;12.18;9.57;;;;;;;-145.63;100.00;61273.97;5063253;28;20083;-68
2023/12/31 00:48:44;;;;;;;11.68;9.07;;;;;;;-145.63;100.00;61273.97;5062844;28;20040;-68
2023/12/31 00:51:10;;;;;;;11.77;9.32;;;;;;;-145.63;100.00;61273.97;5063264;28;20024;-68
2023/12/31 00:53:36;;;;;;;9.30;8.13;;;;;;;-145.63;100.00;61273.97;5049806;28;20025;-68
2023/12/31 00:56:02;;;;;;;10.18;8.32;;;;;;;-145.63;100.00;61273.97;5050890;28;20025;-67
2023/12/31 00:58:28;;;;;;;9.52;7.47;;;;;;;-145.63;100.00;61273.97;5063067;28;20032;-67
2023/12/31 01:00:53;;;;;;;8.55;7.38;;;;;;;-145.63;100.00;61273.97;5063270;28;20218;-68
2023/12/31 01:03:19;;;;;;;9.90;7.65;;;;;;;-145.63;100.00;61273.97;5043710;28;20028;-67
2023/12/31 01:05:45;;;;;;;9.55;7.90;;;;;;;-145.63;100.00;61273.97;5057279;28;20053;-67
2023/12/31 01:08:11;;;;;;;9.68;8.68;;;;;;;-145.63;100.00;61273.97;5052784;28;20048;-68
2023/12/31 01:10:36;;;;;;;12.35;9.40;;;;;;;-145.63;100.00;61273.97;5047639;28;20318;-68
2023/12/31 01:13:02;;;;;;;10.18;8.63;;;;;;;-145.63;100.00;61273.97;5062426;28;20029;-68
2023/12/31 01:15:28;;;;;;;10.18;8.10;;;;;;;-145.63;100.00;61273.97;5042867;28;20247;-67
2023/12/31 01:17:54;;;;;;;10.93;8.57;;;;;;;-145.63;100.00;61273.97;5058368;28;20321;-68
2023/12/31 01:20:20;;;;;;;10.23;8.68;;;;;;;-145.63;100.00;61273.97;5051774;28;20040;-68
2023/12/31 01:22:45;;;;;;;8.68;7.53;;;;;;;-145.63;100.00;61273.97;5049164;28;20044;-68
2023/12/31 01:25:11;;;;;;;8.30;7.43;;;;;;;-145.63;100.00;61273.97;5061315;28;20059;-68
2023/12/31 01:27:37;;;;;;;10.55;8.75;;;;;;;-145.63;100.00;61273.97;5042657;28;20029;-67
2023/12/31 01:30:03;;;;;;;11.82;9.27;;;;;;;-145.63;100.00;61273.97;5058973;28;20021;-67
2023/12/31 01:32:31;;;;;;;8.75;7.85;;;;;;;-145.63;100.00;61273.97;5050404;28;20079;-67
2023/12/31 01:35:01;;;;;;;12.07;10.35;;;;;;;-145.63;100.00;61273.97;5049817;28;20293;-67
2023/12/31 01:37:30;;;;;;;11.25;9.25;;;;;;;-145.63;100.00;61273.97;5058519;28;20100;-68
2023/12/31 01:39:56;;;;;;;10.07;8.20;;;;;;;-145.63;100.00;61273.97;5042146;28;20076;-68
2023/12/31 01:42:22;;;;;;;10.85;8.20;;;;;;;-145.63;100.00;61273.97;5080929;28;20024;-68
2023/12/31 01:44:47;;;;;;;8.90;7.40;;;;;;;-145.63;100.00;61273.97;5067844;28;20186;-66
2023/12/31 01:47:15;;;;;;;8.60;7.00;;;;;;;-145.63;100.00;61273.97;5052687;28;20026;-69
2023/12/31 01:49:41;;;;;;;8.27;7.30;;;;;;;-145.63;100.00;61273.97;5050954;28;20021;-69
2023/12/31 01:52:07;;;;;;;10.50;8.80;;;;;;;-145.63;100.00;61273.97;5061719;28;20025;-67
2023/12/31 01:54:32;;;;;;;10.75;8.00;;;;;;;-145.63;100.00;61273.97;5042263;28;20135;-68
2023/12/31 01:56:59;;;;;;;8.88;7.80;;;;;;;-145.63;100.00;61273.97;5058011;28;20117;-68
2023/12/31 01:59:25;;;;;;;9.65;7.43;;;;;;;-145.63;100.00;61273.97;5073567;28;20069;-67
2023/12/31 02:01:52;;;;;;;10.05;8.07;;;;;;;-145.63;100.00;61273.97;5075730;28;20036;-67
2023/12/31 02:04:20;;;;;;;9.70;7.35;;;;;;;-145.63;100.00;61273.97;5060091;28;20040;-67
2023/12/31 02:06:46;;;;;;;9.70;8.23;;;;;;;-145.63;100.00;61273.97;5047766;28;20350;-67
2023/12/31 02:09:12;;;;;;;10.20;7.65;;;;;;;-145.63;100.00;61273.97;5064870;28;20056;-68
2023/12/31 02:11:38;;;;;;;11.20;8.30;;;;;;;-145.63;100.00;61273.97;5059665;28;20185;-68
2023/12/31 02:14:04;;;;;;;9.43;7.60;;;;;;;-145.63;100.00;61273.97;5057746;28;20030;-68
2023/12/31 02:16:30;;;;;;;11.40;8.75;;;;;;;-145.63;100.00;61273.97;5049618;28;20092;-68
2023/12/31 02:18:56;;;;;;;11.95;8.80;;;;;;;-145.63;100.00;61273.97;5065961;28;20036;-68
2023/12/31 02:21:22;;;;;;;12.88;10.50;;;;;;;-145.63;100.00;61273.97;5047225;28;20206;-68
2023/12/31 02:23:49;;;;;;;12.18;10.10;;;;;;;-145.63;100.00;61273.97;5060153;28;20032;-68
2023/12/31 02:26:15;;;;;;;13.93;10.20;;;;;;;-145.63;100.00;61273.97;5056258;28;20155;-68
2023/12/31 02:28:40;;;;;;;14.23;10.05;;;;;;;-145.63;100.00;61273.97;5050536;28;20024;-68
2023/12/31 02:31:06;;;;;;;16.02;11.35;;;;;;;-145.63;100.00;61273.97;5065735;28;20294;-68
2023/12/31 02:33:33;;;;;;;15.90;12.43;;;;;;;-145.63;100.00;61273.97;5045926;28;20029;-68
2023/12/31 02:35:58;;;;;;;15.30;11.13;;;;;;;-145.63;100.00;61273.97;5060940;28;20028;-68
2023/12/31 02:38:24;;;;;;;16.98;11.40;;;;;;;-145.63;100.00;61273.97;5054907;28;20048;-68
2023/12/31 02:40:50;;;;;;;15.45;10.43;;;;;;;-145.63;100.00;61273.97;5062751;28;20063;-68
2023/12/31 02:43:17;;;;;;;17.45;11.05;;;;;;;-145.63;100.00;61273.97;5084241;28;20087;-69
2023/12/31 02:45:43;;;;;;;15.48;11.23;;;;;;;-145.63;100.00;61273.97;5065544;28;20210;-68
2023/12/31 02:48:09;;;;;;;14.90;11.30;;;;;;;-145.63;100.00;61273.97;5081766;28;20147;-68
2023/12/31 02:50:34;;;;;;;14.68;10.35;;;;;;;-145.63;100.00;61273.97;5085304;28;20024;-68
2023/12/31 02:53:00;;;;;;;16.23;11.15;;;;;;;-145.63;100.00;61273.97;5078085;28;20024;-68
2023/12/31 02:55:26;;;;;;;13.95;10.38;;;;;;;-145.63;100.00;61273.97;5066655;28;20036;-68
2023/12/31 02:57:51;;;;;;;14.77;10.73;;;;;;;-145.63;100.00;61273.97;5085548;28;20024;-68
2023/12/31 03:00:17;;;;;;;13.32;9.15;;;;;;;-145.63;100.00;61273.97;5085131;28;20556;-68
2023/12/31 03:02:43;;;;;;;12.57;10.00;;;;;;;-145.63;100.00;61273.97;5072102;28;20029;-68
2023/12/31 03:05:11;;;;;;;14.10;9.88;;;;;;;-145.63;100.00;61273.97;5073121;28;20028;-68
2023/12/31 03:07:37;;;;;;;14.27;10.00;;;;;;;-145.63;100.00;61273.97;5084999;28;20032;-68
2023/12/31 03:10:03;;;;;;;13.43;10.10;;;;;;;-145.63;100.00;61273.97;5084943;28;20025;-68
2023/12/31 03:12:29;;;;;;;12.85;9.25;;;;;;;-145.63;100.00;61273.97;5080356;28;20028;-69
2023/12/31 03:14:56;;;;;;;13.38;9.77;;;;;;;-145.63;100.00;61273.97;5070678;28;20060;-68
2023/12/31 03:17:22;;;;;;;15.63;9.90;;;;;;;-145.63;100.00;61273.97;5074442;28;20028;-69
2023/12/31 03:19:50;;;;;;;14.52;9.82;;;;;;;-145.63;100.00;61273.97;5079423;28;20039;-69
2023/12/31 03:22:15;;;;;;;17.05;12.23;;;;;;;-145.63;100.00;61273.97;5065505;28;20485;-69
2023/12/31 03:24:43;;;;;;;23.40;17.63;;;;;;;-145.63;100.00;61273.97;5084532;28;20032;-68
2023/12/31 03:27:09;;;;;;;22.30;15.45;;;;;;;-145.63;100.00;61273.97;5068152;28;20092;-68
2023/12/31 03:29:38;;;;;;;15.02;9.82;;;;;;;-145.63;100.00;61273.97;5075807;28;20036;-67
2023/12/31 03:32:04;;;;;;;14.68;10.23;;;;;;;-145.63;100.00;61273.97;5077076;28;20032;-68
2023/12/31 03:34:30;;;;;;;13.50;9.45;;;;;;;-145.63;100.00;61273.97;5067139;28;20045;-68
2023/12/31 03:36:56;;;;;;;16.42;10.30;;;;;;;-145.63;100.00;61273.97;5084632;28;20032;-68
2023/12/31 03:39:22;;;;;;;12.38;8.93;;;;;;;-145.63;100.00;61273.97;5066279;28;20087;-68
2023/12/31 03:41:50;;;;;;;12.55;9.27;;;;;;;-145.63;100.00;61273.97;5077641;28;20028;-68
2023/12/31 03:44:16;;;;;;;13.65;9.18;;;;;;;-145.63;100.00;61273.97;5075212;28;20032;-68
2023/12/31 03:46:42;;;;;;;11.27;8.50;;;;;;;-145.63;100.00;61273.97;5068433;28;20017;-68
2023/12/31 03:49:08;;;;;;;10.35;7.78;;;;;;;-145.63;100.00;61273.97;5084238;28;20020;-68
2023/12/31 03:51:33;;;;;;;9.07;7.65;;;;;;;-145.63;100.00;61273.97;5084172;28;20028;-68
2023/12/31 03:53:59;;;;;;;8.13;6.57;;;;;;;-145.63;100.00;61273.97;5069372;28;20505;-68
2023/12/31 03:56:24;;;;;;;9.32;7.13;;;;;;;-145.63;100.00;61273.97;5074294;28;20024;-68
2023/12/31 03:58:50;;;;;;;8.63;6.00;;;;;;;-145.63;100.00;61273.97;5084164;28;20047;-68
2023/12/31 04:01:16;;;;;;;8.50;6.57;;;;;;;-145.63;100.00;61273.97;5083400;28;20029;-68
2023/12/31 04:03:41;;;;;;;7.50;6.00;;;;;;;-145.63;100.00;61273.97;5046473;28;20033;-68
2023/12/31 04:06:07;;;;;;;6.65;5.40;;;;;;;-145.63;100.00;61273.97;5079470;28;20025;-69
2023/12/31 04:08:33;;;;;;;6.40;5.50;;;;;;;-145.63;100.00;61273.97;5065997;28;20048;-69
2023/12/31 04:10:59;;;;;;;5.88;5.03;;;;;;;-145.63;100.00;61273.97;5079458;28;20309;-68
2023/12/31 04:13:25;;;;;;;5.57;4.97;;;;;;;-145.63;100.00;61273.97;5082359;28;20035;-69
2023/12/31 04:15:50;;;;;;;6.10;5.25;;;;;;;-145.63;100.00;61273.97;5063882;28;20025;-68
2023/12/31 04:18:17;;;;;;;5.30;4.80;;;;;;;-145.63;100.00;61273.97;5080669;28;20036;-68
2023/12/31 04:20:43;;;;;;;6.63;5.22;;;;;;;-145.63;100.00;61273.97;5071103;28;20032;-69
2023/12/31 04:23:09;;;;;;;7.07;4.95;;;;;;;-145.63;100.00;61273.97;5071172;28;20028;-68
2023/12/31 04:25:34;;;;;;;5.50;4.53;;;;;;;-145.63;100.00;61273.97;5080613;28;20025;-67
2023/12/31 04:28:00;;;;;;;6.75;5.97;;;;;;;-145.63;100.00;61273.97;5063420;28;20316;-67
2023/12/31 04:30:26;;;;;;;5.57;4.97;;;;;;;-145.63;100.00;61273.97;5080492;28;20040;-68
2023/12/31 04:32:52;;;;;;;4.88;4.20;;;;;;;-145.63;100.00;61273.97;5069555;28;20029;-68
2023/12/31 04:35:18;;;;;;;5.70;4.60;;;;;;;-145.63;100.00;61273.97;5071973;28;20067;-69
2023/12/31 04:37:44;;;;;;;6.10;5.15;;;;;;;-145.63;100.00;61273.97;5078794;28;20209;-69
2023/12/31 04:40:10;;;;;;;5.15;4.65;;;;;;;-145.63;100.00;61273.97;5063243;28;20025;-67
2023/12/31 04:42:36;;;;;;;5.43;4.60;;;;;;;-145.63;100.00;61273.97;5082459;28;20070;-68
2023/12/31 04:45:07;;;;;;;5.22;4.72;;;;;;;-145.63;100.00;61273.97;5068581;28;20032;-67
2023/12/31 04:47:35;;;;;;;4.85;4.32;;;;;;;-145.63;100.00;61273.97;5073577;28;20016;-68
2023/12/31 04:50:00;;;;;;;5.13;4.63;;;;;;;-145.63;100.00;61273.97;5082868;28;20028;-67
2023/12/31 04:52:26;;;;;;;6.38;5.05;;;;;;;-145.63;100.00;61273.97;5081540;28;20293;-67
2023/12/31 04:54:51;;;;;;;5.47;4.97;;;;;;;-145.63;100.00;61273.97;5063124;28;20067;-67
2023/12/31 04:57:17;;;;;;;4.85;4.40;;;;;;;-145.63;100.00;61273.97;5079471;28;20339;-67
2023/12/31 04:59:43;;;;;;;6.88;5.03;;;;;;;-145.63;100.00;61273.97;5082836;28;20025;-67
2023/12/31 05:02:08;;;;;;;5.18;4.40;;;;;;;-145.63;100.00;61273.97;5075375;28;20086;-68
2023/12/31 05:04:34;;;;;;;5.38;4.68;;;;;;;-145.63;100.00;61273.97;5064955;28;20029;-68
2023/12/31 05:07:00;;;;;;;5.35;4.80;;;;;;;-145.63;100.00;61273.97;5082940;28;20067;-68
2023/12/31 05:09:25;;;;;;;6.30;4.80;;;;;;;-145.63;100.00;61273.97;5082831;28;20055;-66
2023/12/31 05:11:51;;;;;;;4.78;4.22;;;;;;;-145.63;100.00;61273.97;5078792;28;20504;-68
2023/12/31 05:14:17;;;;;;;4.78;4.22;;;;;;;-145.63;100.00;61273.97;5074421;28;20029;-67
2023/12/31 05:16:42;;;;;;;5.22;4.32;;;;;;;-145.63;100.00;61273.97;5066101;28;20036;-67
2023/12/31 05:19:08;;;;;;;5.30;4.53;;;;;;;-145.63;100.00;61273.97;5082651;28;20246;-67
2023/12/31 05:21:34;;;;;;;5.28;4.38;;;;;;;-145.63;100.00;61273.97;5063762;28;20326;-68
2023/12/31 05:24:00;;;;;;;4.82;4.32;;;;;;;-145.63;100.00;61273.97;5090597;28;20024;-67
2023/12/31 05:26:25;;;;;;;5.18;4.47;;;;;;;-145.63;100.00;61273.97;5093226;28;20174;-68
2023/12/31 05:28:52;;;;;;;7.95;4.70;;;;;;;-145.63;100.00;61273.97;5076730;28;20091;-68
2023/12/31 05:31:18;;;;;;;5.65;4.50;;;;;;;-145.63;100.00;61273.97;5062315;28;20104;-67
2023/12/31 05:33:44;;;;;;;5.50;4.65;;;;;;;-145.63;100.00;61273.97;5082361;28;20024;-67
2023/12/31 05:36:11;;;;;;;6.10;4.40;;;;;;;-145.63;100.00;61273.97;5066598;28;20323;-67
2023/12/31 05:38:36;;;;;;;5.93;4.65;;;;;;;-145.63;100.00;61273.97;5073039;28;20041;-67
2023/12/31 05:41:02;;;;;;;5.22;4.60;;;;;;;-145.63;100.00;61273.97;5075973;28;20036;-67
2023/12/31 05:43:28;;;;;;;5.40;4.15;;;;;;;-145.63;100.00;61273.97;5063385;28;20021;-67
2023/12/31 05:45:54;;;;;;;4.68;4.28;;;;;;;-145.63;100.00;61273.97;5082523;28;20020;-67
2023/12/31 05:48:19;;;;;;;4.93;4.40;;;;;;;-145.63;100.00;61273.97;5065272;28;20029;-67
2023/12/31 05:50:46;;;;;;;5.10;4.15;;;;;;;-145.63;100.00;61273.97;5079563;28;20336;-69
2023/12/31 05:53:12;;;;;;;4.20;3.63;;;;;;;-145.63;100.00;61273.97;5074869;28;20366;-68
2023/12/31 05:55:38;;;;;;;4.22;3.80;;;;;;;-145.63;100.00;61273.97;5064743;28;20078;-68
2023/12/31 05:58:04;;;;;;;4.90;3.72;;;;;;;-145.63;100.00;61273.97;5082150;28;20040;-68
2023/12/31 06:00:29;;;;;;;4.32;3.88;;;;;;;-145.63;100.00;61273.97;5082058;28;20059;-67
2023/12/31 06:02:55;;;;;;;4.00;3.40;;;;;;;-145.63;100.00;61273.97;5068875;28;20036;-68
2023/12/31 06:05:21;;;;;;;5.43;3.80;;;;;;;-145.63;100.00;61273.97;5070164;28;20028;-68
2023/12/31 06:07:47;;;;;;;4.13;3.72;;;;;;;-145.63;100.00;61273.97;5081904;28;20051;-68
2023/12/31 06:10:13;;;;;;;4.03;3.58;;;;;;;-145.63;100.00;61273.97;5082090;28;20194;-69
2023/12/31 06:12:38;;;;;;;4.22;3.83;;;;;;;-145.63;100.00;61273.97;5078552;28;20096;-67
2023/12/31 06:15:09;;;;;;;5.25;3.85;;;;;;;-145.63;100.00;61273.97;5049826;28;20479;-67
2023/12/31 06:17:38;;;;;;;4.47;3.38;;;;;;;-145.63;100.00;61273.97;5072214;28;20324;-68
2023/12/31 06:20:06;;;;;;;4.05;3.45;;;;;;;-145.63;100.00;61273.97;5057961;28;20352;-68
2023/12/31 06:22:33;;;;;;;4.80;3.35;;;;;;;-145.63;100.00;61273.97;5063229;28;20044;-69
2023/12/31 06:24:59;;;;;;;5.20;4.18;;;;;;;-145.63;100.00;61273.97;5081977;28;20075;-68
2023/12/31 06:27:25;;;;;;;4.40;4.00;;;;;;;-145.63;100.00;61273.97;5064951;28;20309;-68
2023/12/31 06:29:51;;;;;;;5.88;4.30;;;;;;;-145.63;100.00;61273.97;5073924;28;20374;-68
2023/12/31 06:32:18;;;;;;;5.72;4.55;;;;;;;-145.63;100.00;61273.97;5074043;28;20025;-67
2023/12/31 06:34:44;;;;;;;4.70;4.22;;;;;;;-145.63;100.00;61273.97;5064195;28;20101;-69
2023/12/31 06:37:11;;;;;;;5.68;3.85;;;;;;;-145.63;100.00;61273.97;5081689;28;20042;-68
2023/12/31 06:39:37;;;;;;;6.40;5.07;;;;;;;-145.63;100.00;61273.97;5063066;28;20074;-69
2023/12/31 06:42:02;;;;;;;4.93;3.65;;;;;;;-145.63;100.00;61273.97;5075336;28;20372;-68
2023/12/31 06:44:29;;;;;;;4.20;3.40;;;;;;;-145.63;100.00;61273.97;5090931;28;20020;-68
2023/12/31 06:46:55;;;;;;;4.60;3.90;;;;;;;-145.63;100.00;61273.97;5097391;28;20036;-68
2023/12/31 06:49:21;;;;;;;5.65;3.28;;;;;;;-145.63;100.00;61273.97;5081674;28;20031;-67
2023/12/31 06:51:47;;;;;;;5.18;3.17;;;;;;;-145.63;100.00;61273.97;5081723;28;20056;-68
2023/12/31 06:54:14;;;;;;;4.78;3.28;;;;;;;-145.63;100.00;61273.97;5068916;28;20053;-69
2023/12/31 06:56:39;;;;;;;4.25;3.42;;;;;;;-145.63;100.00;61273.97;5075609;28;20066;-68
2023/12/31 06:59:05;;;;;;;3.80;2.95;;;;;;;-145.63;100.00;61273.97;5085086;28;20029;-68
2023/12/31 07:01:30;;;;;;;2.58;2.17;;;;;;;-145.63;100.00;61273.97;5084357;28;20055;-68
2023/12/31 07:03:56;;;;;;;3.88;2.83;;;;;;;-145.63;100.00;61273.97;5065230;28;20052;-68
2023/12/31 07:06:22;;;;;;;2.75;2.55;;;;;;;-145.63;100.00;61273.97;5080890;28;20035;-69
2023/12/31 07:08:47;;;;;;;3.03;2.45;;;;;;;-145.63;100.00;61273.97;5084762;28;20064;-68
2023/12/31 07:11:14;;;;;;;5.07;3.85;;;;;;;-145.63;100.00;61273.97;5082183;28;20075;-68
2023/12/31 07:13:40;;;;;;;3.30;3.00;;;;;;;-145.63;100.00;61273.97;5084232;28;20024;-68
2023/12/31 07:16:06;;;;;;;7.80;6.82;;;;;;;-145.63;100.00;61273.97;5084681;28;20212;-68
2023/12/31 07:18:33;;;;;;;5.40;3.03;;;;;;;-145.63;100.00;61273.97;5084482;28;20024;-69
2023/12/31 07:20:59;;;;;;;3.70;2.50;;;;;;;-145.63;100.00;61273.97;5071894;28;20259;-68
2023/12/31 07:23:24;;;;;;;4.75;3.10;;;;;;;-145.63;100.00;61273.97;5072742;28;20033;-68
2023/12/31 07:25:50;;;;;;;3.72;2.30;;;;;;;-145.63;100.00;61273.97;5081353;28;20032;-67
2023/12/31 07:28:16;;;;;;;2.97;2.50;;;;;;;-145.63;100.00;61273.97;5063123;28;20051;-69
2023/12/31 07:30:44;;;;;;;2.45;1.90;;;;;;;-145.63;100.00;61273.97;5083212;28;20024;-68
2023/12/31 07:33:10;;;;;;;2.20;2.00;;;;;;;-145.63;100.00;61273.97;5069817;28;20200;-68
2023/12/31 07:35:36;;;;;;;1.77;1.67;;;;;;;-145.63;100.00;61273.97;5073262;28;20076;-68
2023/12/31 07:38:03;;;;;;;1.45;1.35;;;;;;;-145.63;100.00;61273.97;5078911;28;20040;-69
2023/12/31 07:40:30;;;;;;;4.60;3.80;;;;;;;-145.63;100.00;61273.97;5064236;28;20028;-69
2023/12/31 07:42:56;;;;;;;2.08;1.88;;;;;;;-145.63;100.00;61273.97;5083964;28;20090;-69
2023/12/31 07:45:21;;;;;;;2.45;2.22;;;;;;;-145.63;100.00;61273.97;5068290;28;20025;-68
2023/12/31 07:47:48;;;;;;;4.28;3.42;;;;;;;-145.63;100.00;61273.97;5074509;28;20031;-68
2023/12/31 07:50:14;;;;;;;1.55;1.45;;;;;;;-145.63;100.00;61273.97;5083796;28;20058;-67
2023/12/31 07:52:40;;;;;;;1.60;1.50;;;;;;;-145.63;100.00;61273.97;5082395;28;20031;-70
2023/12/31 07:55:08;;;;;;;1.73;1.40;;;;;;;-145.63;100.00;61273.97;5063998;28;20029;-69
2023/12/31 07:57:35;;;;;;;1.50;1.40;;;;;;;-145.63;100.00;61273.97;5081577;28;20074;-68
2023/12/31 08:00:06;;;;;;;2.13;1.92;;;;;;;-145.63;100.00;61273.97;5083796;28;20028;-69
2023/12/31 08:02:32;;;;;;;1.35;1.20;;;;;;;-145.63;100.00;61273.97;5075054;28;20357;-67
2023/12/31 08:04:57;;;;;;;2.22;1.50;;;;;;;-145.63;100.00;61273.97;5049627;28;20039;-68
2023/12/31 08:07:23;;;;;;;1.50;1.40;;;;;;;-145.63;100.00;61273.97;5066157;28;20294;-69
2023/12/31 08:09:49;;;;;;;1.50;1.40;;;;;;;-145.63;100.00;61273.97;5083633;28;20052;-68
2023/12/31 08:12:14;;;;;;;1.30;1.20;;;;;;;-145.63;100.00;61273.97;5081574;28;20021;-68
2023/12/31 08:14:40;;;;;;;1.63;1.20;;;;;;;-145.63;100.00;61273.97;5083662;28;20202;-68
2023/12/31 08:17:07;;;;;;;1.42;1.20;;;;;;;-145.63;100.00;61273.97;5078673;28;20218;-68
2023/12/31 08:19:33;;;;;;;1.95;1.75;;;;;;;-145.63;100.00;61273.97;5063885;28;20033;-69
2023/12/31 08:21:58;;;;;;;3.20;2.55;;;;;;;-145.63;100.00;61273.97;5083508;28;20325;-68
2023/12/31 08:24:24;;;;;;;1.58;1.38;;;;;;;-145.63;100.00;61273.97;5067522;28;20025;-68
2023/12/31 08:26:50;;;;;;;1.70;1.50;;;;;;;-145.63;100.00;61273.97;5074554;28;20036;-68
2023/12/31 08:29:16;;;;;;;2.30;2.08;;;;;;;-145.63;100.00;61273.97;5076739;28;20087;-67
2023/12/31 08:31:47;;;;;;;2.15;1.80;;;;;;;-145.63;100.00;61273.97;5064940;28;20213;-67
2023/12/31 08:34:13;;;;;;;1.52;1.30;;;;;;;-145.63;100.00;61273.97;5083267;28;20063;-68
2023/12/31 08:36:39;;;;;;;2.83;2.63;;;;;;;-145.63;100.00;61273.97;5064452;28;20109;-68
2023/12/31 08:39:04;;;;;;;4.07;3.67;;;;;;;-145.63;100.00;61273.97;5076138;28;20048;-68
2023/12/31 08:41:30;;;;;;;3.25;2.83;;;;;;;-145.63;100.00;61273.97;5075018;28;20028;-68
2023/12/31 08:43:55;;;;;;;1.42;1.20;;;;;;;-145.63;100.00;61273.97;5066231;28;20213;-68
2023/12/31 08:46:21;;;;;;;1.92;1.38;;;;;;;-145.63;100.00;61273.97;5083026;28;20032;-70
2023/12/31 08:48:47;;;;;;;1.48;1.05;;;;;;;-145.63;100.00;61273.97;5100587;28;20028;-69
2023/12/31 08:51:13;;;;;;;1.83;1.23;;;;;;;-145.63;100.00;61273.97;5097239;28;20052;-68
2023/12/31 08:53:39;;;;;;;1.27;1.13;;;;;;;-145.63;100.00;61273.97;5093803;28;20031;-67
2023/12/31 08:56:05;;;;;;;1.80;1.00;;;;;;;-145.63;100.00;61273.97;5078163;28;20021;-68
2023/12/31 08:58:31;;;;;;;2.97;0.90;;;;;;;-145.63;100.00;61273.97;5063045;28;20105;-68
2023/12/31 09:00:57;;;;;;;0.95;0.88;;;;;;;-145.63;100.00;61273.97;5062494;28;20033;-67
2023/12/31 09:03:24;;;;;;;5.10;0.90;;;;;;;-145.63;100.00;61273.97;5077700;28;20201;-68
2023/12/31 09:05:49;;;;;;;1.02;0.80;;;;;;;-145.63;100.00;61273.97;5082843;28;20024;-68
2023/12/31 09:08:15;;;;;;;1.17;1.08;;;;;;;-145.63;100.00;61273.97;5082412;28;20078;-69
2023/12/31 09:10:42;;;;;;;2.22;1.25;;;;;;;-145.63;100.00;61273.97;5082742;28;20035;-69
2023/12/31 09:13:07;;;;;;;2.55;1.60;;;;;;;-145.63;100.00;61273.97;5082782;28;20032;-67
2023/12/31 09:15:34;;;;;;;0.95;0.90;;;;;;;-145.63;100.00;61273.97;5065457;28;20056;-67
2023/12/31 09:18:00;;;;;;;1.30;1.20;;;;;;;-145.63;100.00;61273.97;5074625;28;20029;-68
2023/12/31 09:20:25;;;;;;;1.05;0.98;;;;;;;-145.63;100.00;61273.97;5075380;28;20197;-69
2023/12/31 09:22:53;;;;;;;1.20;1.10;;;;;;;-145.63;100.00;61273.97;5064716;28;20025;-68
2023/12/31 09:25:20;;;;;;;1.30;1.20;;;;;;;-145.63;100.00;61273.97;5082570;28;20674;-67
2023/12/31 09:27:47;;;;;;;2.80;1.10;;;;;;;-145.63;100.00;61273.97;5064336;28;20093;-67
2023/12/31 09:30:13;;;;;;;1.23;1.02;;;;;;;-145.63;100.00;61273.97;5075817;28;20327;-67
2023/12/31 09:32:39;;;;;;;0.95;0.93;;;;;;;-145.63;100.00;61273.97;5073427;28;20051;-67
2023/12/31 09:35:05;;;;;;;1.45;1.30;;;;;;;-145.63;100.00;61273.97;5066276;28;20045;-68
2023/12/31 09:37:31;;;;;;;1.60;1.20;;;;;;;-145.63;100.00;61273.97;5082535;28;20055;-68
2023/12/31 09:39:57;;;;;;;2.70;2.20;;;;;;;-145.63;100.00;61273.97;5062878;28;20209;-68
2023/12/31 09:42:38;;;;;;;1.90;1.13;;;;;;;-145.63;100.00;61273.97;5077229;28;20035;-68
2023/12/31 09:45:08;;;;;;;2.07;1.50;;;;;;;-145.63;100.00;61273.97;5070187;28;20059;-67
2023/12/31 09:47:34;;;;;;;2.05;1.80;;;;;;;-145.63;100.00;61273.97;5070095;28;20436;-68
2023/12/31 09:50:03;;;;;;;2.05;1.55;;;;;;;-145.63;100.00;61273.97;5082069;28;20025;-67
2023/12/31 09:52:31;;;;;;;4.40;1.95;;;;;;;-145.63;100.00;61273.97;5082386;28;20024;-68
2023/12/31 09:54:58;;;;;;;3.28;1.52;;;;;;;-145.63;100.00;61273.97;5062582;28;20029;-68
2023/12/31 09:57:25;;;;;;;2.85;1.50;;;;;;;-145.63;100.00;61273.97;5059220;28;20024;-68
2023/12/31 09:59:53;;;;;;;3.47;1.52;;;;;;;-145.63;100.00;61273.97;5082361;28;20036;-68
2023/12/31 10:02:22;;;;;;;2.20;1.50;;;;;;;-145.63;100.00;61273.97;5076150;28;20048;-68
2023/12/31 10:04:50;;;;;;;1.73;1.45;;;;;;;-145.63;100.00;61273.97;5063482;28;20065;-68
2023/12/31 10:07:15;;;;;;;2.17;1.80;;;;;;;-145.63;100.00;61273.97;5082071;28;20216;-69
2023/12/31 10:09:42;;;;;;;2.85;1.90;;;;;;;-145.63;100.00;61273.97;5081846;28;20032;-68
2023/12/31 10:12:08;;;;;;;4.85;2.75;;;;;;;-145.63;100.00;61273.97;5081730;28;20469;-68
2023/12/31 10:14:33;;;;;;;3.30;2.03;;;;;;;-145.63;100.00;61273.97;5074324;28;20067;-68
2023/12/31 10:16:59;;;;;;;2.55;1.63;;;;;;;-145.63;100.00;61273.97;5065137;28;20221;-69
2023/12/31 10:19:24;;;;;;;2.83;1.85;;;;;;;-145.63;100.00;61273.97;5081976;28;20032;-68
2023/12/31 10:21:50;;;;;;;1.50;1.40;;;;;;;-145.63;100.00;61273.97;5063813;28;20092;-68
2023/12/31 10:24:26;;;;;;;1.25;1.15;;;;;;;-145.63;100.00;61273.97;5075530;28;20397;-68
2023/12/31 10:26:53;;;;;;;2.38;2.17;;;;;;;-145.63;100.00;61273.97;5072538;28;20107;-68
2023/12/31 10:29:20;;;;;;;1.98;1.20;;;;;;;-145.63;100.00;61273.97;5071454;28;20099;-68
2023/12/31 10:31:48;;;;;;;4.65;2.05;;;;;;;-145.63;100.00;61273.97;5084805;28;20024;-68
2023/12/31 10:34:17;;;;;;;1.88;1.60;;;;;;;-145.63;100.00;61273.97;5065859;28;20033;-68
2023/12/31 10:36:47;;;;;;;3.13;2.00;;;;;;;-145.63;100.00;61273.97;5098101;28;20201;-68
2023/12/31 10:39:27;;;;;;;2.72;1.70;;;;;;;-145.63;100.00;61273.97;5072961;28;20256;-68
2023/12/31 10:41:58;;;;;;;2.42;2.00;;;;;;;-145.63;100.00;61273.97;5075808;28;20120;-68
2023/12/31 10:44:25;;;;;;;2.00;1.65;;;;;;;-145.63;100.00;61273.97;5079643;28;20068;-67
2023/12/31 10:46:52;;;;;;;3.03;2.08;;;;;;;-145.63;100.00;61273.97;5066705;28;20071;-68
2023/12/31 10:49:21;;;;;;;3.28;1.95;;;;;;;-145.63;100.00;61273.97;5085431;28;20111;-68
2023/12/31 10:51:51;;;;;;;2.75;1.70;;;;;;;-145.63;100.00;61273.97;5085133;28;20035;-68
2023/12/31 10:54:24;;;;;;;3.85;2.05;;;;;;;-145.63;100.00;61273.97;5071860;28;20206;-69
2023/12/31 10:56:50;;;;;;;2.88;1.92;;;;;;;-145.63;100.00;61273.97;5074933;28;20055;-68
2023/12/31 10:59:16;;;;;;;3.95;2.50;;;;;;;-145.63;100.00;61273.97;5084796;28;20036;-68
2023/12/31 11:01:43;;;;;;;2.55;1.92;;;;;;;-145.63;100.00;61273.97;5084798;28;20324;-68